Tuesday, January 16, 2018, 11:53 AM GMT
Back to Local

CYZV, Sept-Iles, Que.

Location: , , Canada Lat: 50.217
Local Time: 11:53 AM GMT (11:53 GMT) Lon: -66.267
Time Zone: GMT Elev: 180 ft

Show me the last for .
Show Decoded

2018-01-16 11:00 METAR CYZV 161100Z 02009KT 15SM BKN180 M21/M26 A3058 RMK AC7 SLP362 =
2018-01-16 10:00 METAR CYZV 161000Z 02008KT 15SM BKN200 M22/M26 A3061 RMK CI7 SLP372 =
2018-01-16 09:00 METAR CYZV 160900Z 02008KT 15SM FEW020 SCT200 M22/M26 A3064 RMK SC2CI2 SLP385 =
2018-01-16 08:00 METAR CYZV 160800Z 03008KT 15SM FEW030 SCT170 M22/M26 A3067 RMK SC1AC2 SLP394 =
2018-01-16 07:00 METAR CYZV 160700Z 04008KT 15SM FEW030 SCT170 M22/M26 A3068 RMK SC1AC2 SLP397 =
2018-01-16 06:00 METAR CYZV 160600Z 03008KT 15SM FEW030 SCT170 M21/M26 A3071 RMK SC1AC3 SLP407 =
2018-01-16 05:00 METAR CYZV 160500Z 02008KT 15SM SKC M21/M25 A3072 RMK SLP413 =
2018-01-16 04:00 METAR CYZV 160400Z 03007KT 15SM SKC M21/M25 A3075 RMK SLP420 =
2018-01-16 03:00 METAR CYZV 160300Z 03008KT 15SM SKC M21/M25 A3080 RMK SLP438 =
2018-01-16 02:00 METAR CYZV 160200Z 05006KT 15SM SKC M21/M25 A3080 RMK SLP438 =
2018-01-16 01:00 METAR CYZV 160100Z 02008KT 15SM FEW160 SCT210 M19/M23 A3082 RMK AC1CI2 SLP445 =
2018-01-16 00:00 METAR CYZV 160000Z 35004KT 15SM FEW160 FEW210 M20/M23 A3086 RMK AC1CI1 SLP461 =
2018-01-15 23:00 METAR CYZV 152300Z 01005KT 15SM OVC210 M18/M23 A3088 RMK CI8 SLP465 =
2018-01-15 22:00 METAR CYZV 152200Z 35005KT 15SM BKN180 BKN210 M18/M23 A3090 RMK AC7CI1 CI TR
                 SLP474 =
2018-01-15 21:00 METAR CYZV 152100Z 31003KT 30SM FEW180 BKN200 M19/M23 A3092 RMK AC1CI6 SLP478 =
2018-01-15 20:00 METAR CYZV 152000Z 00000KT 30SM BKN200 M18/M23 A3089 RMK CI7 SLP471 =
2018-01-15 19:00 METAR CYZV 151900Z 00000KT 30SM SCT170 BKN220 M17/M24 A3089 RMK AS3CI4 SLP471 =
2018-01-15 18:00 METAR CYZV 151800Z 05003KT 30SM SCT150 SCT250 M18/M24 A3089 RMK AS3CI1 SLP471 =
2018-01-15 17:00 METAR CYZV 151700Z 17005KT 30SM SCT250 M18/M25 A3092 RMK CI4 SLP480 =
2018-01-15 16:00 METAR CYZV 151600Z 05002KT 30SM FEW250 M19/M25 A3097 RMK CI1 SLP495 =
2018-01-15 15:00 METAR CYZV 151500Z 05003KT 30SM FEW200 FEW250 M21/M26 A3097 RMK CI1CI1 CI TR
                 SLP498 =
2018-01-15 14:00 METAR CYZV 151400Z 02007KT 30SM FEW250 M22/M27 A3098 RMK CI1 SLP499 =
2018-01-15 13:00 METAR CYZV 151300Z 03004KT 30SM FEW250 M28/M32 A3098 RMK CI1 CI TR SLP501 =
2018-01-15 12:00 METAR CYZV 151200Z 04007KT 30SM FEW250 M28/M32 A3095 RMK CI1 CI TR SLP490 =

Support USWX by starting your Amazon purchase here.